Date,TemperatureHighF,TemperatureAvgF,TemperatureLowF,DewpointHighF,DewpointAvgF,DewpointLowF,HumidityHigh,HumidityAvg,HumidityLow,PressureMaxIn,PressureMinIn,WindSpeedMaxMPH,WindSpeedAvgMPH,GustSpeedMaxMPH,PrecipitationSumIn
2013-5-1,81,68,56,52,35,18,74,34,11,30.06,29.82,11,4,16,0.00
2013-5-2,90,71,55,50,37,25,70,34,11,30.13,30.05,7,2,12,0.00
2013-5-3,82,66,55,54,48,34,84,56,24,30.05,29.77,10,2,13,0.00
2013-5-4,72,60,53,56,51,43,90,75,46,29.77,29.57,12,5,18,0.00
2013-5-5,64,59,54,52,50,48,86,73,60,29.80,29.59,11,3,18,0.00
2013-5-6,67,60,55,53,51,50,85,73,57,29.96,29.80,11,3,20,0.00
2013-5-7,67,60,53,56,53,51,94,80,59,30.03,29.95,13,4,16,0.00
2013-5-8,60,55,52,53,51,48,94,86,74,30.12,30.03,12,5,16,0.00
2013-5-9,64,56,52,53,50,48,90,82,68,30.16,30.08,16,6,18,0.00
2013-5-10,59,54,50,53,51,49,94,88,80,30.18,30.10,18,7,23,0.00
2013-5-11,68,56,51,57,52,49,95,87,67,30.14,30.04,13,5,20,0.00
2013-5-12,68,58,52,58,54,50,95,85,69,30.13,30.02,14,5,20,0.00
2013-5-13,66,58,51,57,53,50,95,83,71,30.08,29.94,12,6,18,0.00
2013-5-14,65,58,52,54,51,47,92,78,64,29.98,29.91,17,8,26,0.00
2013-5-15,66,56,50,53,49,46,89,76,57,30.04,29.97,13,6,20,0.00
2013-5-16,65,58,54,57,52,47,93,81,61,30.02,29.94,12,5,18,0.00
2013-5-17,67,58,51,52,48,43,85,71,52,30.06,29.96,11,4,16,0.00
2013-5-18,72,60,49,54,50,47,91,73,51,30.12,30.05,12,4,14,0.00
2013-5-19,76,64,52,54,51,47,88,65,40,30.11,29.96,10,2,12,0.00
2013-5-20,80,63,52,57,52,47,89,69,41,29.99,29.91,14,4,21,0.00
2013-5-21,69,58,51,50,47,40,90,67,43,29.98,29.89,17,6,23,0.00
2013-5-22,65,55,48,44,37,22,74,52,21,30.02,29.89,13,6,24,0.00
2013-5-23,67,56,46,45,43,41,81,63,41,29.99,29.90,14,3,15,0.00
2013-5-24,66,56,49,51,46,40,90,70,47,29.99,29.92,13,4,18,0.00
2013-5-25,64,56,48,50,48,45,90,75,57,30.03,29.94,13,5,19,0.00
2013-5-26,64,58,53,55,52,49,93,79,68,30.11,30.03,14,5,15,0.00
2013-5-27,63,57,52,56,53,48,96,86,72,30.10,29.99,12,4,13,0.03
2013-5-28,68,60,54,60,55,50,97,84,65,29.99,29.91,10,4,13,0.02
2013-5-29,70,60,54,56,52,48,91,76,54,29.96,29.88,11,4,17,0.00
2013-5-30,72,60,51,52,50,46,92,70,43,29.98,29.91,10,3,15,0.00
2013-5-31,73,62,51,55,51,48,87,70,48,30.00,29.89,10,3,18,0.00